Hicks Airfield Weather

No METAR data is available for Hicks Airfield, and nearby Alliance Airport's METAR data is commonly used by area pilots. Weather infomation is also available on 126.925 mhz.

  • Current KAFW METAR
    (5.8nm NE) VFR
    Raw Text: KAFW 232153Z 19014G20KT 10SM SCT050TCU BKN075 34/21 A3001 RMK AO2 SLP144 TCU ALQDS T03390206
    Wind: 190° @ 14kts gusting to 20kts
    Visibility: 10.0sm
    Clouds (AGL): SCT at 5000ft
    Temperature: 33.9°C
    Dew Point: 20.6°C
    Altimeter: 30.01 inHg
  • Current KAFW TAF
    (5.8nm NE)
    Raw Text: KAFW 232101Z 2321/2418 19012G22KT P6SM BKN040 FM240200 17011G21KT P6SM FEW040